Terminal Aerodrome Forecast
Issued by NWS

Home | Current Version | Previous Version | Text Only | Print | Product List | Glossary On
Versions: 1 2 3 4 5 6 7 8 9 10 11 12 13 14
000
FTUS46 KLOX 302300 RRA
TAFSBP
TAF
KSBP 302340Z 3100/3124 31015KT P6SM SKC
     FM310300 31008KT P6SM SKC
     FM310500 VRB03KT P6SM SKC
     FM311000 34005KT 4SM BR BKN003
     FM311400 33006KT P6SM SKC
     FM311800 31011KT P6SM SCT250
     FM312000 31020G28KT P6SM SCT250=

USA.gov is the U.S. government's official web portal to all federal, state and local government web resources and services.